NCAR-RAP Real-Time Weather Data

Output produced by METARs form (18 August 2018  01:02 UTC)
found at http://weather.rap.ucar.edu/surface/
 
RJCK 180000Z 34012KT 9999 FEW025 BKN040 17/09 Q1011
RJCK 172300Z 35014G24KT 9999 FEW025 BKN040 15/09 Q1010
RJCK 172200Z 33009KT 300V010 9999 FEW020 SCT040 15/10 Q1010
RJCK 172145Z 33007KT 290V360 9999 FEW020 SCT040 15/09 Q1010 RMK 1CU020 4CU040 A2983
RJCK 171100Z 30006KT 250V040 9999 FEW010 BKN030 14/09 Q1008
RJCK 171000Z 02009KT 9999 FEW010 SCT040 BKN150 14/09 Q1007
RJCK 170900Z 01006KT 9999 FEW010 BKN040 15/10 Q1006
RJCK 170800Z 35011KT 9999 FEW015 SCT035 BKN/// 15/10 Q1006
RJCK 170700Z 35018KT 9999 FEW020 SCT040 BKN120 17/10 Q1006
RJCK 170600Z 35020G30KT 9999 FEW020 SCT040 BKN100 16/09 Q1006
RJCK 170500Z 34020KT 9999 FEW020 SCT045 BKN080 17/10 Q1005
RJCK 170400Z 35017G28KT 9999 FEW030 BKN080 17/09 Q1005
RJCK 170300Z 35017KT 9999 FEW030 BKN070 16/10 Q1004
RJCK 170200Z 35014KT 9999 -SHRA FEW030 BKN070 17/12 Q1004
RJCK 170100Z 34013KT 9999 -SHRA FEW020 SCT030 BKN070 16/11 Q1004
RJCK 170000Z 35015KT 9999 -SHRA FEW020 SCT040 BKN080 16/11 Q1004
RJCK 162300Z 36013KT 9999 -SHRA FEW020 SCT030 BKN080 15/11 Q1003
RJCK 162200Z 36008KT 9999 FEW020 SCT030 BKN080 14/12 Q1003
RJCK 162145Z 02008KT 9999 -SHRA FEW020 SCT030 BKN080 13/11 Q1003 RMK 1CU020 4CU030 7AC080 A2962
RJCK 161136Z 35008KT 6000 SHRA FEW002 SCT005 BKN008 12/12 Q1004 RMK 1ST002 4ST005 5ST008 A2967
RJCK 161126Z 01009KT 7000 -SHRA FEW002 SCT005 BKN008 13/12 Q1004 RMK 1ST002 3ST005 5ST008 A2966
RJCK 161100Z 03014KT 6000 SHRA FEW002 SCT005 BKN008 13/12 Q1004
RJCK 161039Z 02013KT 8000 -SHRA FEW002 SCT005 BKN009 13/12 Q1003 RMK 1ST002 3ST005 5ST009 A2964
RJCK 161000Z 04012KT 6000 SHRA FEW002 SCT005 BKN009 13/12 Q1004
RJCK 160916Z 03016KT 7000 SHRA FEW002 SCT005 BKN008 13/12 Q1004 RMK 1ST002 3ST005 6ST008 A2965
RJCK 160900Z 03012KT 8000 -SHRA FEW002 SCT005 BKN008 13/13 Q1004
RJCK 160800Z 03012KT 8000 -SHRA FEW002 SCT005 BKN008 13/12 Q1003
RJCK 160700Z 03014G26KT 6000 -SHRA FEW001 SCT005 BKN008 13/12 Q1004
RJCK 160642Z 03014KT 7000 SHRA FEW001 SCT005 BKN006 13/13 Q1004 RMK 1ST001 3ST005 6ST006 A2966
RJCK 160600Z 03013KT 360V070 7000 -SHRA FEW001 SCT005 BKN006 14/13 Q1004
RJCK 160546Z 03013KT 5000 SHRA BR FEW001 SCT005 BKN006 14/13 Q1004 RMK 1ST001 3ST005 6ST006 A2967
RJCK 160524Z 03012KT 4900 SHRA BR FEW001 SCT005 BKN006 14/14 Q1005 RMK 1ST001 3ST005 6ST006 A2968
RJCK 160507Z 03012KT 5000 -SHRA BR FEW001 SCT005 BKN006 14/14 Q1005 RMK 1ST001 4ST005 6ST006 A2968
RJCK 160500Z 03011KT 4500 -SHRA BR FEW001 SCT004 BKN005 14/14 Q1005
RJCK 160445Z 03010KT 3200 BCFG SHRA BR FEW001 SCT004 BKN005 14/14 Q1005 RMK 1ST001 4ST004 6ST005 A2970
RJCK 160400Z 02012KT 2400 BCFG SHRA BR FEW001 SCT003 BKN004 14/14 Q1006
RJCK 160340Z 02011KT 2300 BCFG -SHRA BR FEW001 BKN003 BKN004 14/14 Q1006 RMK 1ST001 5ST003 7ST004 A2972
RJCK 160333Z 02012KT 3100 BCFG -SHRA BR FEW001 SCT003 BKN004 14/14 Q1006 RMK 1ST001 4ST003 6ST004 A2973
RJCK 160320Z 02011KT 3200 BCFG -SHRA BR FEW001 SCT003 BKN004 14/14 Q1006 RMK 1ST001 4ST003 6ST004 A2973
RJCK 160303Z 03010KT 2400 BCFG -SHRA BR FEW001 SCT002 BKN003 14/14 Q1007 RMK 2ST001 4ST002 6ST003 A2974
RJCK 160300Z 03010KT 2000 BCFG SHRA BR FEW001 SCT002 BKN003 14/14 Q1007
RJCK 160238Z 02009KT 2000 BCFG SHRA BR FEW001 SCT002 BKN003 15/14 Q1007 RMK 2ST001 4ST002 6ST003 A2975
RJCK 160216Z 01009KT 2000 BCFG -SHRA BR FEW001 SCT002 BKN003 14/14 Q1007 RMK 2ST001 4ST002 6ST003 A2975
RJCK 160200Z 02009KT 1600 R17/1400VP2000N BCFG SHRA BR FEW001 SCT002 BKN003 15/14 Q1007
RJCK 160127Z 02010KT 2300 BCFG -SHRA BR FEW001 BKN003 BKN004 15/14 Q1008 RMK 2ST001 5ST003 7ST004 A2977
RJCK 160118Z 02011KT 3100 BCFG -SHRA BR FEW001 SCT003 BKN004 15/14 Q1007 RMK 1ST001 4ST003 7ST004 A2976
RJCK 160115Z 02010KT 4900 -SHRA BR FEW002 SCT003 BKN004 15/14 Q1007 RMK 1ST002 4ST003 6ST004 A2976
RJCK 160104Z 02009KT 5000 -SHRA BR FEW002 SCT003 BKN004 15/14 Q1008 RMK 1ST002 4ST003 6ST004 A2977
RJCK 160100Z 02010KT 360V060 4500 -SHRA BR FEW002 SCT003 BKN004 15/14 Q1008
RJCK 160007Z 02009KT 4900 -SHRA BR FEW001 SCT003 BKN004 15/14 Q1008 RMK 1ST001 4ST003 6ST004 A2979
RJCK 160000Z 02010KT 5000 -SHRA BR FEW001 SCT003 BKN004 15/14 Q1008
RJCK 152329Z 02010KT 5000 -SHRA BR FEW001 SCT003 BKN004 15/14 Q1009 RMK 1ST001 4ST003 6ST004 A2980
RJCK 152326Z 02009KT 3200 BCFG -SHRA BR FEW001 SCT002 BKN003 15/14 Q1009 RMK 1ST001 4ST002 6ST003 A2981
RJCK 152324Z 03009KT 2400 R17/1200VP2000U BCFG -SHRA BR FEW001 SCT002 BKN003 15/14 Q1009 RMK 2ST001 4ST002 6ST003 A2981
RJCK 152321Z 03008KT 1600 R17/1100VP2000U BCFG -SHRA BR SCT001 BKN002 BKN003 15/14 Q1009 RMK 4ST001 5ST002 7ST003 A2980
RJCK 152317Z 04008KT 1500 R17/0900VP2000U BCFG -SHRA BR SCT001 BKN002 BKN003 15/14 Q1009 RMK 4ST001 6ST002 7ST003 A2980
RJCK 152311Z 04008KT 1400 R17/0900VP2000D BCFG -SHRA BR SCT001 BKN002 BKN003 15/14 Q1009 RMK 4ST001 6ST002 7ST003 A2980
RJCK 152305Z 04008KT 1500 R17/0800VP2000U BCFG -SHRA BR SCT001 BKN002 BKN003 15/14 Q1009 RMK 4ST001 6ST002 7ST003 A2981
RJCK 152300Z 03008KT 1200 R17/0500VP2000N BCFG -SHRA BR SCT001 BKN002 BKN003 15/14 Q1009
RJCK 152215Z 04007KT 1400 R35/P2000N BCFG -SHRA BR SCT001 BKN002 BKN003 15/14 Q1010 RMK 3ST001 5ST002 7ST003 A2983
RJCK 152212Z 04007KT 1500 R17/0600VP2000D BCFG -SHRA BR SCT001 BKN002 BKN003 14/14 Q1010 RMK 3ST001 5ST002 7ST003 A2983
RJCK 152200Z 04009KT 2000 R17/1400VP2000N BCFG -SHRA BR FEW001 SCT002 BKN003 14/14 Q1010
RJCK 152145Z 03007KT 2000 R17/0550VP2000D BCFG -SHRA BR FEW001 SCT002 BKN003 15/14 Q1010 RMK 2ST001 4ST002 7ST003 A2984